Jack Mc Namara Field Airport Crescent City US
ICAO: KCEC
IATA: CEC
Category: Medium
Scheduled Services: Yes

Elevation: 61 ft
TransAlt. 18000 ft.

Airport Communications:
ASOS:119.925
SEATTLE CNTR:124.85
CTAF:122.8
OAKLAND RDO:122.3
UNICOM:122.8

KCEC Zoom In..

Runways:

(A) RW 11 length 5000 ft width 150 ft
ILS 108.70 / hdg 117

(B) RW 17 length 5001 ft width 150 ft
---- / hdg 177

(C) RW 29 length 5000 ft width 150 ft
---- / hdg 297

(D) RW 35 length 5001 ft width 150 ft
---- / hdg 357

Location; KCEC
Day. 26 / Time. 12.56 Zulu
* Altimeter: 30.16
* Temperature: 09° c. 48.2°f.
* Wind from: 000° Speed 00 kn.
Dewpoint: 07° c.
Visibility: 10 Statute Miles.
Clouds: Clear (automated report).

KCEC 261256Z AUTO 00000KT 10SM CLR 09/07 A3016 RMK AO2 SLP212 T00890067


Wind - Calm.

 
 
jpsmedia.com for Web Design SOUNDCLOUD worldairports.se 2018   terms of use